X  Chiuso Dati meteorologici dell'aviazione (METAR)        ETWM Twente
Temperatura
6°C Temperatura
3°C Punto di rugiada
81% Umidità



Vento
6 M/S
13 MPH
20 KM/O
11 KTS



20°
NNE
Condizioni attuali

Mostly Cloudy Prevalentemente nuvoloso
Pressione 1008 (hPa) - 29.76 (inHg)
Visibilità 6 (miglio) - 10 (km)
Aeroporto
Codice-Aeroporto ETWM

Posizione: Twente
Distanza: 7 (km)

Metar:
METAR ETWM 261320Z 02011KT 9999 FEW012 SCT049 BKN093 06/03 Q1008 BLU

Ore: 26-02-2024 14:20 CET